createdAt,value
2018-01-13T00:00:51.162Z,19.27
2018-01-13T00:03:19.452Z,20.58
2018-01-13T00:05:47.726Z,18.95
2018-01-13T00:08:15.980Z,18.70
2018-01-13T00:10:43.534Z,18.05
2018-01-13T00:13:11.039Z,18.30
2018-01-13T00:15:38.561Z,18.50
2018-01-13T00:18:06.056Z,18.83
2018-01-13T00:20:33.578Z,17.58
2018-01-13T00:23:01.090Z,19.17
2018-01-13T00:25:28.632Z,18.62
2018-01-13T00:27:56.888Z,17.48
2018-01-13T00:30:24.390Z,18.65
2018-01-13T00:32:51.918Z,16.95
2018-01-13T00:35:20.213Z,20.80
2018-01-13T00:37:47.765Z,19.02
2018-01-13T00:40:15.269Z,19.15
2018-01-13T00:42:42.802Z,17.75
2018-01-13T00:45:10.305Z,19.00
2018-01-13T00:47:37.821Z,17.30
2018-01-13T00:50:05.315Z,17.25
2018-01-13T00:52:32.821Z,19.02
2018-01-13T00:55:00.363Z,17.90
2018-01-13T00:57:28.632Z,17.33
2018-01-13T00:59:56.151Z,17.98
2018-01-13T01:02:23.664Z,16.62
2018-01-13T01:04:51.963Z,17.67
2018-01-13T01:07:19.476Z,16.62
2018-01-13T01:09:46.988Z,17.00
2018-01-13T01:12:14.501Z,17.65
2018-01-13T01:14:42.005Z,16.20
2018-01-13T01:17:09.536Z,17.60
2018-01-13T01:19:37.817Z,17.62
2018-01-13T01:22:06.104Z,17.70
2018-01-13T01:24:34.393Z,15.68
2018-01-13T01:27:01.916Z,15.70
2018-01-13T01:29:29.430Z,17.42
2018-01-13T01:31:56.957Z,16.00
2018-01-13T01:34:25.216Z,16.08
2018-01-13T01:36:52.730Z,15.68
2018-01-13T01:39:20.256Z,15.65
2018-01-13T01:41:48.528Z,16.05
2018-01-13T01:44:16.811Z,16.83
2018-01-13T01:46:45.090Z,15.48
2018-01-13T01:49:13.380Z,18.45
2018-01-13T01:51:40.888Z,17.25
2018-01-13T01:54:08.415Z,16.10
2018-01-13T01:56:35.936Z,16.23
2018-01-13T01:59:04.206Z,18.40
2018-01-13T02:01:31.747Z,15.52
2018-01-13T02:03:59.265Z,15.52
2018-01-13T02:06:26.792Z,16.73
2018-01-13T02:08:55.065Z,15.95
2018-01-13T02:11:23.368Z,14.70
2018-01-13T02:13:50.875Z,14.43
2018-01-13T02:16:18.413Z,14.68
2018-01-13T02:18:45.919Z,15.93
2018-01-13T02:21:13.440Z,16.30
2018-01-13T02:23:40.943Z,14.52
2018-01-13T02:26:09.244Z,16.87
2018-01-13T02:28:36.752Z,15.48
2018-01-13T02:31:04.252Z,16.15
2018-01-13T02:33:31.785Z,16.12
2018-01-13T02:35:59.292Z,15.73
2018-01-13T02:38:26.832Z,15.50
2018-01-13T02:40:55.108Z,14.70
2018-01-13T02:43:23.404Z,15.50
2018-01-13T02:45:50.910Z,13.75
2018-01-13T02:48:18.444Z,14.87
2018-01-13T02:50:45.957Z,14.75
2018-01-13T02:53:14.231Z,15.80
2018-01-13T02:55:42.523Z,14.52
2018-01-13T02:58:10.029Z,14.20
2018-01-13T03:00:37.557Z,13.35
2018-01-13T03:03:05.056Z,13.55
2018-01-13T03:05:32.573Z,14.02
2018-01-13T03:08:00.084Z,13.25
2018-01-13T03:10:27.592Z,12.85
2018-01-13T03:12:55.108Z,15.02
2018-01-13T03:15:22.609Z,14.02
2018-01-13T03:17:50.141Z,14.45
2018-01-13T03:20:18.420Z,13.10
2018-01-13T03:22:46.721Z,14.45
2018-01-13T03:25:14.225Z,14.00
2018-01-13T03:27:41.740Z,13.60
2018-01-13T03:30:09.280Z,14.68
2018-01-13T03:32:36.809Z,13.07
2018-01-13T03:35:04.336Z,13.48
2018-01-13T03:37:31.832Z,12.37
2018-01-13T03:39:59.349Z,15.45
2018-01-13T03:42:26.861Z,14.15
2018-01-13T03:44:54.384Z,15.65
2018-01-13T03:47:21.900Z,14.70
2018-01-13T03:49:50.193Z,14.20
2018-01-13T03:52:17.710Z,13.52
2018-01-13T03:54:45.208Z,13.55
2018-01-13T03:57:12.741Z,13.48
2018-01-13T03:59:40.240Z,15.20
2018-01-13T04:02:07.755Z,15.60
2018-01-13T04:04:35.260Z,13.43
2018-01-13T04:07:02.782Z,13.55
2018-01-13T04:09:30.294Z,15.65
2018-01-13T04:11:57.810Z,12.95
2018-01-13T04:14:26.113Z,15.25
2018-01-13T04:16:53.617Z,14.02
2018-01-13T04:19:21.141Z,12.93
2018-01-13T04:21:48.651Z,13.60
2018-01-13T04:24:16.174Z,14.05
2018-01-13T04:26:43.685Z,13.13
2018-01-13T04:29:11.956Z,14.10
2018-01-13T04:31:40.249Z,13.80
2018-01-13T04:34:08.526Z,13.75
2018-01-13T04:36:36.817Z,13.50
2018-01-13T04:39:04.346Z,14.10
2018-01-13T04:41:31.868Z,13.07
2018-01-13T04:43:59.372Z,13.62
2018-01-13T04:46:27.633Z,13.15
2018-01-13T04:48:55.155Z,12.35
2018-01-13T04:51:22.660Z,13.38
2018-01-13T04:53:50.188Z,13.05
2018-01-13T04:56:17.684Z,11.95
2018-01-13T04:58:45.970Z,10.48
2018-01-13T05:01:14.232Z,10.85
2018-01-13T05:03:42.502Z,9.60
2018-01-13T05:06:10.063Z,10.27
2018-01-13T05:08:37.550Z,9.15
2018-01-13T05:11:05.071Z,11.90
2018-01-13T05:13:32.576Z,12.60
2018-01-13T05:16:00.099Z,10.73
2018-01-13T05:18:27.591Z,11.18
2018-01-13T05:20:55.091Z,12.75
2018-01-13T05:23:22.614Z,11.07
2018-01-13T05:25:50.115Z,11.80
2018-01-13T05:28:17.623Z,11.35
2018-01-13T05:30:46.004Z,12.00
2018-01-13T05:33:13.535Z,11.85
2018-01-13T05:35:41.050Z,12.93
2018-01-13T05:38:08.568Z,11.27
2018-01-13T05:40:36.836Z,13.10
2018-01-13T05:43:05.108Z,12.98
2018-01-13T05:45:32.622Z,11.95
2018-01-13T05:48:00.125Z,13.35
2018-01-13T05:50:27.656Z,13.30
2018-01-13T05:52:55.160Z,12.48
2018-01-13T05:55:23.448Z,12.25
2018-01-13T05:57:51.718Z,12.30
2018-01-13T06:00:20.005Z,14.07
2018-01-13T06:02:48.325Z,12.18
2018-01-13T06:05:15.844Z,12.30
2018-01-13T06:07:44.110Z,13.10
2018-01-13T06:10:12.408Z,13.93
2018-01-13T06:12:39.921Z,13.40
2018-01-13T06:15:07.460Z,14.73
2018-01-13T06:17:34.969Z,13.43
2018-01-13T06:20:03.254Z,12.60
2018-01-13T06:22:30.760Z,14.00
2018-01-13T06:24:58.270Z,14.60
2018-01-13T06:27:26.571Z,13.88
2018-01-13T06:29:54.079Z,13.18
2018-01-13T06:32:21.605Z,14.60
2018-01-13T06:34:49.115Z,12.90
2018-01-13T06:37:17.417Z,13.10
2018-01-13T06:39:44.934Z,12.43
2018-01-13T06:42:12.624Z,12.40
2018-01-13T06:44:40.133Z,13.10
2018-01-13T06:47:07.649Z,12.70
2018-01-13T06:49:35.924Z,12.35
2018-01-13T06:52:04.211Z,12.20
2018-01-13T06:54:31.779Z,13.88
2018-01-13T06:57:00.590Z,11.93
2018-01-13T06:59:29.962Z,12.25
2018-01-13T07:01:57.524Z,13.38
2018-01-13T07:04:25.083Z,14.07
2018-01-13T07:06:52.600Z,13.90
2018-01-13T07:09:20.122Z,13.73
2018-01-13T07:11:47.628Z,13.93
2018-01-13T07:14:15.151Z,13.80
2018-01-13T07:16:42.736Z,13.95
2018-01-13T07:19:11.254Z,13.60
2018-01-13T07:21:39.536Z,14.45
2018-01-13T07:24:07.816Z,13.23
2018-01-13T07:26:36.099Z,13.30
2018-01-13T07:29:04.361Z,13.57
2018-01-13T07:31:32.670Z,13.85
2018-01-13T07:34:00.173Z,14.98
2018-01-13T07:36:27.696Z,14.10
2018-01-13T07:38:55.208Z,15.38
2018-01-13T07:41:22.748Z,13.27
2018-01-13T07:43:50.267Z,14.35
2018-01-13T07:46:17.788Z,14.43
2018-01-13T07:48:46.077Z,12.23
2018-01-13T07:51:14.352Z,13.48
2018-01-13T07:53:42.635Z,13.95
2018-01-13T07:56:10.133Z,12.30
2018-01-13T07:58:37.669Z,12.40
2018-01-13T08:01:05.179Z,13.30
2018-01-13T08:03:32.699Z,13.30
2018-01-13T08:06:00.445Z,14.75
2018-01-13T08:08:28.919Z,13.18
2018-01-13T08:10:57.212Z,12.07
2018-01-13T08:13:27.176Z,14.30
2018-01-13T08:15:54.916Z,14.98
2018-01-13T08:18:25.096Z,14.23
2018-01-13T08:20:59.656Z,13.32
2018-01-13T08:23:27.317Z,13.07
2018-01-13T08:26:07.617Z,12.90
2018-01-13T08:28:38.180Z,12.52
2018-01-13T08:31:06.474Z,14.10
2018-01-13T08:33:34.068Z,13.13
2018-01-13T08:36:01.646Z,15.07
2018-01-13T08:38:30.783Z,13.10
2018-01-13T08:40:58.323Z,13.88
2018-01-13T08:43:25.881Z,12.32
2018-01-13T08:45:53.441Z,14.75
2018-01-13T08:48:24.793Z,13.48
2018-01-13T08:50:55.362Z,13.15
2018-01-13T08:53:23.025Z,14.30
2018-01-13T08:55:50.588Z,13.55
2018-01-13T08:58:20.261Z,14.07
2018-01-13T09:00:52.928Z,15.60
2018-01-13T09:03:20.633Z,13.15
2018-01-13T09:05:48.165Z,13.60
2018-01-13T09:08:15.695Z,12.85
2018-01-13T09:10:43.220Z,14.32
2018-01-13T09:13:10.781Z,14.40
2018-01-13T09:15:38.346Z,13.23
2018-01-13T09:18:05.872Z,12.98
2018-01-13T09:20:34.320Z,13.80
2018-01-13T09:23:02.810Z,14.18
2018-01-13T09:25:30.362Z,12.48
2018-01-13T09:27:58.733Z,13.57
2018-01-13T09:30:27.160Z,13.15
2018-01-13T09:32:55.496Z,15.48
2018-01-13T09:35:23.116Z,12.63
2018-01-13T09:37:50.653Z,13.10
2018-01-13T09:40:18.985Z,12.35
2018-01-13T09:42:46.647Z,13.93
2018-01-13T09:45:14.229Z,14.40
2018-01-13T09:47:41.800Z,14.45
2018-01-13T09:50:09.367Z,14.13
2018-01-13T09:52:36.978Z,14.40
2018-01-13T09:55:05.129Z,13.50
2018-01-13T09:57:33.457Z,13.68
2018-01-13T10:00:00.999Z,14.48
2018-01-13T10:02:28.509Z,16.15
2018-01-13T10:04:56.825Z,13.95
2018-01-13T10:07:24.336Z,14.90
2018-01-13T10:09:51.877Z,13.95
2018-01-13T10:12:19.424Z,14.38
2018-01-13T10:14:46.968Z,15.30
2018-01-13T10:17:14.513Z,14.30
2018-01-13T10:19:42.081Z,14.73
2018-01-13T10:22:09.632Z,15.93
2018-01-13T10:24:37.154Z,15.27
2018-01-13T10:27:04.697Z,15.40
2018-01-13T10:29:32.243Z,15.20
2018-01-13T10:31:59.770Z,15.07
2018-01-13T10:34:27.305Z,16.80
2018-01-13T10:36:55.699Z,15.43
2018-01-13T10:39:23.242Z,15.55
2018-01-13T10:41:50.756Z,15.38
2018-01-13T10:44:18.308Z,16.52
2018-01-13T10:46:45.827Z,16.33
2018-01-13T10:49:14.138Z,16.40
2018-01-13T10:51:41.639Z,17.30
2018-01-13T10:54:09.208Z,14.45
2018-01-13T10:56:36.736Z,16.58
2018-01-13T10:59:04.264Z,16.27
2018-01-13T11:01:31.786Z,17.58
2018-01-13T11:03:59.329Z,15.27
2018-01-13T11:06:27.702Z,16.83
2018-01-13T11:08:55.240Z,17.77
2018-01-13T11:11:22.765Z,15.80
2018-01-13T11:13:50.279Z,16.00
2018-01-13T11:16:17.853Z,15.15
2018-01-13T11:18:46.634Z,16.48
2018-01-13T11:21:14.955Z,16.25
2018-01-13T11:23:43.296Z,14.85
2018-01-13T11:26:10.863Z,15.07
2018-01-13T11:28:38.411Z,15.10
2018-01-13T11:31:05.977Z,15.25
2018-01-13T11:33:33.509Z,15.18
2018-01-13T11:36:01.466Z,15.65
2018-01-13T11:38:28.984Z,14.90
2018-01-13T11:40:56.532Z,15.10
2018-01-13T11:43:24.048Z,14.10
2018-01-13T11:45:51.573Z,14.30
2018-01-13T11:48:19.921Z,14.10
2018-01-13T11:50:47.456Z,13.68
2018-01-13T11:53:15.017Z,13.70
2018-01-13T11:55:42.584Z,13.82
2018-01-13T11:58:10.139Z,13.85
2018-01-13T12:00:38.585Z,13.57
2018-01-13T12:03:06.151Z,12.70
2018-01-13T12:05:34.896Z,13.85
2018-01-13T12:08:02.555Z,11.82
2018-01-13T12:10:31.125Z,12.48
2018-01-13T12:12:59.639Z,12.02
2018-01-13T12:15:28.545Z,12.20
2018-01-13T12:17:57.091Z,13.38
2018-01-13T12:20:25.306Z,12.55
2018-01-13T12:22:54.602Z,12.95
2018-01-13T12:25:22.171Z,12.77
2018-01-13T12:27:49.815Z,13.70
2018-01-13T12:30:17.374Z,12.70
2018-01-13T12:32:44.962Z,14.30
2018-01-13T12:35:13.270Z,14.15
2018-01-13T12:37:40.820Z,15.05
2018-01-13T12:40:09.245Z,11.98
2018-01-13T12:42:36.909Z,14.25
2018-01-13T12:45:04.518Z,15.18
2018-01-13T12:47:32.179Z,13.88
2018-01-13T12:50:01.578Z,14.65
2018-01-13T12:52:29.966Z,14.20
2018-01-13T12:54:57.717Z,13.80
2018-01-13T12:57:25.570Z,14.70
2018-01-13T12:59:54.068Z,14.25
2018-01-13T13:02:24.782Z,15.50
2018-01-13T13:04:52.532Z,14.73
2018-01-13T13:07:20.737Z,14.82
2018-01-13T13:09:50.147Z,14.93
2018-01-13T13:12:17.664Z,15.93
2018-01-13T13:14:45.185Z,16.10
2018-01-13T13:17:12.781Z,16.35
2018-01-13T13:19:40.295Z,16.05
2018-01-13T13:22:07.851Z,14.55
2018-01-13T13:24:35.465Z,14.07
2018-01-13T13:27:03.737Z,15.65
2018-01-13T13:29:32.424Z,15.90
2018-01-13T13:31:59.958Z,14.87
2018-01-13T13:34:27.557Z,15.05
2018-01-13T13:36:55.109Z,14.93
2018-01-13T13:39:22.868Z,15.95
2018-01-13T13:41:51.441Z,14.68
2018-01-13T13:44:20.390Z,14.27
2018-01-13T13:46:48.790Z,13.70
2018-01-13T13:49:18.139Z,13.43
2018-01-13T13:51:45.753Z,13.75
2018-01-13T13:54:14.131Z,13.48
2018-01-13T13:56:42.493Z,13.07
2018-01-13T13:59:11.017Z,14.38
2018-01-13T14:01:38.569Z,13.45
2018-01-13T14:04:06.109Z,15.25
2018-01-13T14:06:34.445Z,12.55
2018-01-13T14:09:04.017Z,13.48
2018-01-13T14:11:31.582Z,13.20
2018-01-13T14:13:59.089Z,14.50
2018-01-13T14:16:26.649Z,14.48
2018-01-13T14:19:04.798Z,15.40
2018-01-13T14:21:33.098Z,15.23
2018-01-13T14:24:00.632Z,15.20
2018-01-13T14:26:28.917Z,14.65
2018-01-13T14:29:01.180Z,14.23
2018-01-13T14:31:28.688Z,15.65
2018-01-13T14:33:56.228Z,16.25
2018-01-13T14:36:23.738Z,15.43
2018-01-13T14:38:57.940Z,13.75
2018-01-13T14:41:25.468Z,13.93
2018-01-13T14:43:53.083Z,13.85
2018-01-13T14:46:21.393Z,14.57
2018-01-13T14:48:50.176Z,15.00
2018-01-13T14:51:17.702Z,15.18
2018-01-13T14:53:45.217Z,14.70
2018-01-13T14:56:12.752Z,15.90
2018-01-13T14:58:40.961Z,15.13
2018-01-13T15:01:08.497Z,17.40
2018-01-13T15:03:36.027Z,16.45
2018-01-13T15:06:03.601Z,15.25
2018-01-13T15:08:31.880Z,15.75
2018-01-13T15:11:00.172Z,15.60
2018-01-13T15:13:27.708Z,16.67
2018-01-13T15:15:55.988Z,15.82
2018-01-13T15:18:24.295Z,16.60
2018-01-13T15:20:51.817Z,14.75
2018-01-13T15:23:19.535Z,15.10
2018-01-13T15:25:47.053Z,16.87
2018-01-13T15:28:14.592Z,16.27
2018-01-13T15:30:42.110Z,16.25
2018-01-13T15:33:09.647Z,16.37
2018-01-13T15:35:37.159Z,14.70
2018-01-13T15:38:04.687Z,15.52
2018-01-13T15:40:32.201Z,16.15
2018-01-13T15:43:00.489Z,15.10
2018-01-13T15:45:28.778Z,16.77
2018-01-13T15:47:56.300Z,17.15
2018-01-13T15:50:23.841Z,16.50
2018-01-13T15:52:51.368Z,16.25
2018-01-13T15:55:18.897Z,15.80
2018-01-13T15:57:54.530Z,16.70
2018-01-13T16:00:22.716Z,17.42
2018-01-13T16:02:50.248Z,17.75
2018-01-13T16:05:17.759Z,16.95
2018-01-13T16:07:45.288Z,15.60
2018-01-13T16:10:12.789Z,15.98
2018-01-13T16:12:40.318Z,17.75
2018-01-13T16:15:07.819Z,17.55
2018-01-13T16:17:35.355Z,17.12
2018-01-13T16:20:02.864Z,16.17
2018-01-13T16:22:30.394Z,16.48
2018-01-13T16:24:57.901Z,17.33
2018-01-13T16:27:25.549Z,17.10
2018-01-13T16:29:55.132Z,18.02
2018-01-13T16:32:22.713Z,17.17
2018-01-13T16:34:50.264Z,17.37
2018-01-13T16:37:17.793Z,17.42
2018-01-13T16:39:45.329Z,16.77
2018-01-13T16:42:12.853Z,15.93
2018-01-13T16:44:40.385Z,15.75
2018-01-13T16:47:07.891Z,16.27
2018-01-13T16:49:35.400Z,15.80
2018-01-13T16:52:02.930Z,17.12
2018-01-13T16:54:30.442Z,17.35
2018-01-13T16:56:57.965Z,16.00
2018-01-13T16:59:26.257Z,17.15
2018-01-13T17:01:53.808Z,15.60
2018-01-13T17:04:21.313Z,15.88
2018-01-13T17:06:48.851Z,16.75
2018-01-13T17:09:16.370Z,18.05
2018-01-13T17:11:44.648Z,16.35
2018-01-13T17:14:12.941Z,15.98
2018-01-13T17:16:41.224Z,18.15
2018-01-13T17:19:08.772Z,16.95
2018-01-13T17:21:37.045Z,16.87
2018-01-13T17:24:04.577Z,17.52
2018-01-13T17:26:32.156Z,17.62
2018-01-13T17:29:06.076Z,17.40
2018-01-13T17:31:34.354Z,17.35
2018-01-13T17:34:02.641Z,15.90
2018-01-13T17:36:30.166Z,15.60
2018-01-13T17:38:57.679Z,15.40
2018-01-13T17:41:25.209Z,16.52
2018-01-13T17:43:53.480Z,16.87
2018-01-13T17:46:21.786Z,17.75
2018-01-13T17:48:49.287Z,16.55
2018-01-13T17:51:16.813Z,17.10
2018-01-13T17:53:44.324Z,16.80
2018-01-13T17:56:11.853Z,15.75
2018-01-13T17:58:39.405Z,15.27
2018-01-13T18:01:06.921Z,15.23
2018-01-13T18:03:35.216Z,17.12
2018-01-13T18:06:03.614Z,15.50
2018-01-13T18:08:34.456Z,15.73
2018-01-13T18:11:02.016Z,16.73
2018-01-13T18:13:29.562Z,15.48
2018-01-13T18:15:57.845Z,15.75
2018-01-13T18:18:25.372Z,15.90
2018-01-13T18:20:55.640Z,15.00
2018-01-13T18:23:23.172Z,15.73
2018-01-13T18:25:50.716Z,14.60
2018-01-13T18:28:18.987Z,16.17
2018-01-13T18:30:46.516Z,15.25
2018-01-13T18:33:14.016Z,14.82
2018-01-13T18:35:42.296Z,15.70
2018-01-13T18:38:10.564Z,15.00
2018-01-13T18:40:38.857Z,14.48
2018-01-13T18:43:06.357Z,14.80
2018-01-13T18:45:33.866Z,14.40
2018-01-13T18:48:02.156Z,13.38
2018-01-13T18:50:29.661Z,14.23
2018-01-13T18:52:57.180Z,14.57
2018-01-13T18:55:25.227Z,15.85
2018-01-13T18:57:52.767Z,15.45
2018-01-13T19:00:21.407Z,14.02
2018-01-13T19:02:49.402Z,15.23
2018-01-13T19:05:16.904Z,13.88
2018-01-13T19:07:44.509Z,12.60
2018-01-13T19:10:13.074Z,14.50
2018-01-13T19:12:40.605Z,13.75
2018-01-13T19:15:08.180Z,16.52
2018-01-13T19:17:36.530Z,14.35
2018-01-13T19:20:04.089Z,17.27
2018-01-13T19:22:31.642Z,15.93
2018-01-13T19:24:59.156Z,14.73
2018-01-13T19:27:26.674Z,14.40
2018-01-13T19:29:54.199Z,15.32
2018-01-13T19:32:21.704Z,13.73
2018-01-13T19:34:49.508Z,16.15
2018-01-13T19:37:17.026Z,15.05
2018-01-13T19:39:45.341Z,15.15
2018-01-13T19:42:12.853Z,13.77
2018-01-13T19:44:40.368Z,14.60
2018-01-13T19:47:07.901Z,15.60
2018-01-13T19:49:36.176Z,15.77
2018-01-13T19:52:04.522Z,16.37
2018-01-13T19:54:32.816Z,15.05
2018-01-13T19:57:01.112Z,15.05
2018-01-13T19:59:29.381Z,13.50
2018-01-13T20:01:57.678Z,16.87
2018-01-13T20:04:25.212Z,15.80
2018-01-13T20:06:53.492Z,14.20
2018-01-13T20:09:21.016Z,14.13
2018-01-13T20:11:48.526Z,14.73
2018-01-13T20:14:16.831Z,15.73
2018-01-13T20:16:44.400Z,14.70
2018-01-13T20:19:11.976Z,16.02
2018-01-13T20:21:39.490Z,15.20
2018-01-13T20:24:07.782Z,15.50
2018-01-13T20:26:35.288Z,15.35
2018-01-13T20:29:02.793Z,15.45
2018-01-13T20:31:30.341Z,16.42
2018-01-13T20:33:58.703Z,14.50
2018-01-13T20:36:26.229Z,14.00
2018-01-13T20:38:53.732Z,14.05
2018-01-13T20:41:22.034Z,14.90
2018-01-13T20:43:49.553Z,14.52
2018-01-13T20:46:17.080Z,14.38
2018-01-13T20:48:47.949Z,14.25
2018-01-13T20:51:15.480Z,15.68
2018-01-13T20:53:42.994Z,15.63
2018-01-13T20:56:10.518Z,15.68
2018-01-13T20:58:38.057Z,14.32
2018-01-13T21:01:05.585Z,15.38
2018-01-13T21:03:33.108Z,14.73
2018-01-13T21:06:00.820Z,14.48
2018-01-13T21:08:30.577Z,14.98
2018-01-13T21:10:58.232Z,16.35
2018-01-13T21:13:25.772Z,15.50
2018-01-13T21:15:53.287Z,15.73
2018-01-13T21:18:21.605Z,17.92
2018-01-13T21:20:49.123Z,16.80
2018-01-13T21:23:17.400Z,17.48
2018-01-13T21:25:45.713Z,15.50
2018-01-13T21:28:13.247Z,15.48
2018-01-13T21:30:40.792Z,18.48
2018-01-13T21:33:08.299Z,17.08
2018-01-13T21:35:35.834Z,16.35
2018-01-13T21:38:03.350Z,17.40
2018-01-13T21:40:30.874Z,15.45
2018-01-13T21:42:58.597Z,16.37
2018-01-13T21:45:26.886Z,16.05
2018-01-13T21:47:55.183Z,16.02
2018-01-13T21:50:22.692Z,15.20
2018-01-13T21:52:50.252Z,16.08
2018-01-13T21:55:17.755Z,17.45
2018-01-13T21:57:45.277Z,16.10
2018-01-13T22:00:12.792Z,15.45
2018-01-13T22:02:40.303Z,15.35
2018-01-13T22:05:07.849Z,17.17
2018-01-13T22:07:35.376Z,17.25
2018-01-13T22:10:02.894Z,16.80
2018-01-13T22:12:31.171Z,15.77
2018-01-13T22:14:59.479Z,17.20
2018-01-13T22:17:26.986Z,16.75
2018-01-13T22:19:55.501Z,16.50
2018-01-13T22:22:23.780Z,16.25
2018-01-13T22:24:52.084Z,16.30
2018-01-13T22:27:19.616Z,17.83
2018-01-13T22:29:48.905Z,16.83
2018-01-13T22:32:17.213Z,16.77
2018-01-13T22:34:44.723Z,16.60
2018-01-13T22:37:12.253Z,15.10
2018-01-13T22:39:39.795Z,16.55
2018-01-13T22:42:07.325Z,16.48
2018-01-13T22:44:35.594Z,15.65
2018-01-13T22:47:03.119Z,15.15
2018-01-13T22:49:31.647Z,16.37
2018-01-13T22:52:00.278Z,16.12
2018-01-13T22:54:27.799Z,15.20
2018-01-13T22:56:55.298Z,15.52
2018-01-13T22:59:22.833Z,16.80
2018-01-13T23:01:50.348Z,15.60
2018-01-13T23:04:17.885Z,13.90
2018-01-13T23:06:45.412Z,15.63
2018-01-13T23:09:12.952Z,16.42
2018-01-13T23:11:41.232Z,14.90
2018-01-13T23:14:09.580Z,15.13
2018-01-13T23:16:37.085Z,16.60
2018-01-13T23:19:04.657Z,16.15
2018-01-13T23:21:33.117Z,15.77
2018-01-13T23:24:01.385Z,15.60
2018-01-13T23:26:29.680Z,16.15
2018-01-13T23:28:57.196Z,15.10
2018-01-13T23:31:24.717Z,15.70
2018-01-13T23:33:52.228Z,16.00
2018-01-13T23:36:19.752Z,14.80
2018-01-13T23:38:48.272Z,15.90
2018-01-13T23:41:15.797Z,15.45
2018-01-13T23:43:43.324Z,17.42
2018-01-13T23:46:10.840Z,14.77
2018-01-13T23:48:38.367Z,16.15
2018-01-13T23:51:09.711Z,16.92
2018-01-13T23:53:37.228Z,14.05
2018-01-13T23:56:05.508Z,15.07
2018-01-13T23:58:33.858Z,15.90
